Time;durP1;ratioP1;P1;durP2;ratioP2;P2;SDS_P1;SDS_P2;PMS_P1;PMS_P2;Temp;Humidity;BMP_temperature;BMP_pressure;BME280_temperature;BME280_humidity;BME280_pressure;Samples;Min_cycle;Max_cycle;Signal;HPM_P1;HPM_P2
2024/01/19 00:01:03;;;;;;;;;;;;;;;0.51;72.92;99583.63;1083728;47;1066;-78
2024/01/19 00:02:04;;;;;;;;;;;;;;;0.62;72.48;99580.34;1083971;47;1148;-79
2024/01/19 00:03:07;;;;;;;;;;;;;;;0.63;72.45;99571.50;1083658;54;943;-77
2024/01/19 00:04:09;;;;;;;;;;;;;;;0.58;72.67;99584.06;1082998;47;1364;-78
2024/01/19 00:05:09;;;;;;;;;;;;;;;0.70;72.46;99577.25;1082996;47;1147;-77
2024/01/19 00:06:15;;;;;;;;;;;;;;;0.58;72.78;99584.06;1082900;47;1408;-77
2024/01/19 00:07:16;;;;;;;;;;;;;;;0.53;72.35;99586.97;1083704;47;1445;-77
2024/01/19 00:08:20;;;;;;;;;;;;;;;0.52;72.64;99592.34;1082883;54;1530;-78
2024/01/19 00:09:21;;;;;;;;;;;;;;;0.46;72.57;99589.16;1083239;54;1141;-77
2024/01/19 00:10:24;;;;;;;;;;;;;;;0.42;72.61;99585.00;1083431;46;1087;-76
2024/01/19 00:11:25;;;;;;;;;;;;;;;0.50;72.54;99596.84;1083392;47;1158;-77
2024/01/19 00:12:35;;;;;;;;;;;;;;;0.49;72.41;99588.13;1083311;47;1888;-76
2024/01/19 00:13:37;;;;;;;;;;;;;;;0.50;72.60;99596.84;1082704;54;1463;-77
2024/01/19 00:14:40;;;;;;;;;;;;;;;0.53;72.30;99599.31;1082593;54;1180;-77
2024/01/19 00:15:41;;;;;;;;;;;;;;;0.53;72.17;99601.94;1082773;51;1134;-76
2024/01/19 00:16:42;;;;;;;;;;;;;;;0.46;72.59;99612.84;1082930;47;1473;-77
2024/01/19 00:17:45;;;;;;;;;;;;;;;0.51;72.39;99606.44;1082938;47;1462;-76
2024/01/19 00:18:46;;;;;;;;;;;;;;;0.46;72.10;99607.56;1083392;46;1097;-77
2024/01/19 00:19:49;;;;;;;;;;;;;;;0.41;72.11;99609.63;1083272;54;1153;-77
2024/01/19 00:20:50;;;;;;;;;;;;;;;0.47;72.25;99616.28;1083568;54;1152;-77
2024/01/19 00:21:56;;;;;;;;;;;;;;;0.51;72.07;99614.31;1083554;54;860;-77
2024/01/19 00:22:57;;;;;;;;;;;;;;;0.61;71.96;99612.84;1083481;47;1100;-76
2024/01/19 00:24:00;;;;;;;;;;;;;;;0.61;71.80;99618.94;1083294;47;1349;-76
2024/01/19 00:25:00;;;;;;;;;;;;;;;0.64;71.90;99627.59;1083433;54;1169;-76
2024/01/19 00:26:04;;;;;;;;;;;;;;;0.72;71.66;99623.56;1083446;47;1041;-76
2024/01/19 00:27:05;;;;;;;;;;;;;;;0.78;71.45;99628.47;1083574;47;1515;-77
2024/01/19 00:28:08;;;;;;;;;;;;;;;0.81;71.41;99629.22;1083330;47;1034;-76
2024/01/19 00:29:09;;;;;;;;;;;;;;;0.92;71.13;99630.25;1083522;47;1520;-76
2024/01/19 00:30:13;;;;;;;;;;;;;;;0.97;71.14;99629.13;1083421;47;1576;-77
2024/01/19 00:31:14;;;;;;;;;;;;;;;0.83;71.47;99629.97;1083214;54;1014;-76
2024/01/19 00:32:14;;;;;;;;;;;;;;;0.67;71.79;99630.88;1083188;54;1889;-78
2024/01/19 00:33:18;;;;;;;;;;;;;;;0.66;71.90;99634.47;1083400;54;1169;-77
2024/01/19 00:34:18;;;;;;;;;;;;;;;0.66;71.71;99634.47;1083373;47;1309;-77
2024/01/19 00:35:21;;;;;;;;;;;;;;;0.68;71.72;99637.00;1082708;47;1141;-77
2024/01/19 00:36:22;;;;;;;;;;;;;;;0.61;71.95;99641.78;1082708;47;1142;-77
2024/01/19 00:37:26;;;;;;;;;;;;;;;0.66;72.04;99636.25;1083444;47;1066;-78
2024/01/19 00:38:29;;;;;;;;;;;;;;;0.62;71.74;99636.41;1082871;54;1086;-76
2024/01/19 00:39:30;;;;;;;;;;;;;;;0.61;72.20;99647.03;1083056;54;979;-77
2024/01/19 00:40:33;;;;;;;;;;;;;;;0.59;72.24;99647.16;1083483;47;1106;-77
2024/01/19 00:41:35;;;;;;;;;;;;;;;0.53;72.51;99655.38;1083467;54;1335;-77
2024/01/19 00:42:38;;;;;;;;;;;;;;;0.47;72.71;99643.44;1083272;47;1114;-77
2024/01/19 00:43:39;;;;;;;;;;;;;;;0.53;72.59;99659.81;1083377;47;1362;-77
2024/01/19 00:44:43;;;;;;;;;;;;;;;0.57;72.50;99663.94;1083483;54;1063;-77
2024/01/19 00:45:43;;;;;;;;;;;;;;;0.55;72.43;99657.94;1083345;47;1991;-77
2024/01/19 00:46:47;;;;;;;;;;;;;;;0.62;72.49;99664.53;1083311;49;1514;-76
2024/01/19 00:47:48;;;;;;;;;;;;;;;0.58;72.38;99661.22;1083336;47;1080;-77
2024/01/19 00:48:51;;;;;;;;;;;;;;;0.60;72.49;99655.88;1083350;54;1117;-76
2024/01/19 00:49:51;;;;;;;;;;;;;;;0.52;72.35;99653.69;1083416;54;1136;-77
2024/01/19 00:50:52;;;;;;;;;;;;;;;0.53;72.39;99662.44;1083388;54;1106;-76
2024/01/19 00:51:55;;;;;;;;;;;;;;;0.55;72.37;99657.94;1083761;54;1106;-77
2024/01/19 00:52:59;;;;;;;;;;;;;;;0.57;72.19;99656.03;1083460;47;1853;-77
2024/01/19 00:54:02;;;;;;;;;;;;;;;0.58;72.28;99660.38;1083510;54;1301;-77
2024/01/19 00:55:03;;;;;;;;;;;;;;;0.58;72.34;99657.75;1083389;54;1338;-78
2024/01/19 00:56:07;;;;;;;;;;;;;;;0.70;72.12;99666.72;1082953;47;1074;-77
2024/01/19 00:57:07;;;;;;;;;;;;;;;0.73;72.37;99667.38;1082668;47;1496;-78
2024/01/19 00:58:10;;;;;;;;;;;;;;;0.76;72.19;99667.16;1082619;47;1020;-77
2024/01/19 00:59:11;;;;;;;;;;;;;;;0.73;72.18;99667.38;1082660;47;1134;-77
2024/01/19 01:00:16;;;;;;;;;;;;;;;0.68;72.45;99665.94;1082640;47;1143;-77
2024/01/19 01:01:16;;;;;;;;;;;;;;;0.61;72.83;99673.34;1082988;47;1153;-77
2024/01/19 01:02:20;;;;;;;;;;;;;;;0.67;72.61;99666.88;1082786;54;1170;-77
2024/01/19 01:03:21;;;;;;;;;;;;;;;0.61;72.67;99662.81;1082557;54;1118;-77
2024/01/19 01:04:24;;;;;;;;;;;;;;;0.58;72.94;99660.38;1082746;47;1521;-78
2024/01/19 01:05:25;;;;;;;;;;;;;;;0.58;72.98;99661.22;1082785;47;1202;-78
2024/01/19 01:06:29;;;;;;;;;;;;;;;0.46;73.35;99670.69;1082666;47;1099;-78
2024/01/19 01:07:29;;;;;;;;;;;;;;;0.41;73.38;99669.28;1082784;54;1172;-77
2024/01/19 01:08:36;;;;;;;;;;;;;;;0.36;73.58;99671.31;1082786;54;1113;-78
2024/01/19 01:09:36;;;;;;;;;;;;;;;0.44;73.40;99672.56;1082626;47;1128;-78
2024/01/19 01:10:40;;;;;;;;;;;;;;;0.48;73.62;99667.97;1082723;54;1036;-77
2024/01/19 01:11:40;;;;;;;;;;;;;;;0.55;73.45;99673.72;1082861;54;1180;-77
2024/01/19 01:12:43;;;;;;;;;;;;;;;0.55;73.43;99673.72;1083020;54;1924;-77
2024/01/19 01:13:44;;;;;;;;;;;;;;;0.54;73.50;99674.66;1082916;54;1397;-77
2024/01/19 01:14:49;;;;;;;;;;;;;;;0.58;73.22;99678.78;1082753;47;1002;-77
2024/01/19 01:15:49;;;;;;;;;;;;;;;0.56;73.35;99684.16;1083379;47;1156;-77
2024/01/19 01:16:50;;;;;;;;;;;;;;;0.56;73.24;99680.69;1082816;47;1157;-78
2024/01/19 01:17:53;;;;;;;;;;;;;;;0.45;73.80;99678.66;1082801;47;1169;-77
2024/01/19 01:18:54;;;;;;;;;;;;;;;0.40;73.95;99683.34;1083098;54;1088;-77
2024/01/19 01:19:57;;;;;;;;;;;;;;;0.53;73.53;99686.13;1082610;47;1131;-78
2024/01/19 01:20:58;;;;;;;;;;;;;;;0.54;73.46;99690.44;1083071;47;1106;-77
2024/01/19 01:22:02;;;;;;;;;;;;;;;0.47;73.50;99693.41;1083363;54;1169;-77
2024/01/19 01:23:02;;;;;;;;;;;;;;;0.49;73.67;99697.75;1083540;47;1005;-77
2024/01/19 01:24:08;;;;;;;;;;;;;;;0.49;73.80;99700.38;1083455;54;1328;-78
2024/01/19 01:25:09;;;;;;;;;;;;;;;0.49;73.82;99700.38;1083067;54;1010;-78
2024/01/19 01:26:10;;;;;;;;;;;;;;;0.54;73.60;99701.78;1083117;47;1163;-78
2024/01/19 01:27:13;;;;;;;;;;;;;;;0.51;73.88;99699.38;1083110;47;1169;-80
2024/01/19 01:28:14;;;;;;;;;;;;;;;0.56;73.72;99701.72;1083518;47;1123;-78
2024/01/19 01:29:17;;;;;;;;;;;;;;;0.64;73.22;99703.88;1083464;47;1477;-77
2024/01/19 01:30:17;;;;;;;;;;;;;;;0.68;73.43;99706.25;1084165;54;1161;-78
2024/01/19 01:31:18;;;;;;;;;;;;;;;0.66;73.22;99708.16;1084648;54;1022;-78
2024/01/19 01:32:21;;;;;;;;;;;;;;;0.68;73.24;99708.88;1084830;54;1192;-78
2024/01/19 01:33:22;;;;;;;;;;;;;;;0.59;73.28;99712.06;1085524;54;1051;-77
2024/01/19 01:34:25;;;;;;;;;;;;;;;0.56;73.08;99717.50;1086681;54;1389;-80
2024/01/19 01:35:26;;;;;;;;;;;;;;;0.56;73.19;99717.50;1087505;54;1146;-80
2024/01/19 01:36:30;;;;;;;;;;;;;;;0.51;73.01;99717.78;1087538;46;1274;-78
2024/01/19 01:37:30;;;;;;;;;;;;;;;0.50;73.12;99717.84;1086901;47;1090;-78
2024/01/19 01:38:33;;;;;;;;;;;;;;;0.46;73.01;99720.69;1086788;47;1192;-78
2024/01/19 01:39:37;;;;;;;;;;;;;;;0.55;73.07;99718.44;1086811;47;1106;-77
2024/01/19 01:40:40;;;;;;;;;;;;;;;0.50;72.92;99721.34;1086914;47;1033;-77
2024/01/19 01:41:42;;;;;;;;;;;;;;;0.62;72.71;99723.25;1086258;47;1407;-77
2024/01/19 01:42:45;;;;;;;;;;;;;;;0.64;72.88;99727.56;1086259;47;1226;-77
2024/01/19 01:43:46;;;;;;;;;;;;;;;0.77;72.58;99736.47;1086460;47;1376;-78
2024/01/19 01:44:50;;;;;;;;;;;;;;;0.84;72.54;99729.88;1085547;47;1055;-78
2024/01/19 01:45:50;;;;;;;;;;;;;;;0.90;72.39;99737.41;1085666;47;1184;-77
2024/01/19 01:46:54;;;;;;;;;;;;;;;0.82;72.25;99737.03;1085581;54;1148;-77
2024/01/19 01:47:54;;;;;;;;;;;;;;;0.93;71.98;99737.25;1085547;47;1117;-77
2024/01/19 01:48:58;;;;;;;;;;;;;;;0.91;71.87;99741.75;1085496;47;1170;-78
2024/01/19 01:49:59;;;;;;;;;;;;;;;1.04;71.58;99747.13;1085083;47;1174;-78
2024/01/19 01:51:04;;;;;;;;;;;;;;;1.07;71.75;99751.38;1084933;47;1203;-78
2024/01/19 01:52:05;;;;;;;;;;;;;;;1.14;71.33;99749.22;1085044;47;1091;-78
2024/01/19 01:53:09;;;;;;;;;;;;;;;1.18;71.27;99753.38;1084789;47;1863;-77
2024/01/19 01:54:09;;;;;;;;;;;;;;;1.25;71.15;99757.31;1084657;54;1407;-78
2024/01/19 01:55:15;;;;;;;;;;;;;;;1.27;70.97;99754.63;1084448;47;1179;-78
2024/01/19 01:56:16;;;;;;;;;;;;;;;1.28;70.91;99762.41;1085123;54;1081;-78
2024/01/19 01:57:21;;;;;;;;;;;;;;;1.26;70.95;99764.28;1084442;54;1091;-77
2024/01/19 01:58:22;;;;;;;;;;;;;;;1.20;71.00;99765.50;1084193;47;1167;-78
2024/01/19 01:59:25;;;;;;;;;;;;;;;1.18;71.20;99762.09;1084785;47;1054;-78
2024/01/19 02:00:26;;;;;;;;;;;;;;;1.24;70.96;99760.88;1084909;51;1189;-77
2024/01/19 02:01:30;;;;;;;;;;;;;;;1.19;70.94;99766.44;1084901;47;1076;-78
2024/01/19 02:02:30;;;;;;;;;;;;;;;1.08;71.03;99771.50;1084739;47;1115;-78
2024/01/19 02:03:31;;;;;;;;;;;;;;;0.93;71.37;99768.81;1084328;54;1375;-77
2024/01/19 02:04:36;;;;;;;;;;;;;;;0.83;71.61;99775.56;1083896;47;1170;-77
2024/01/19 02:05:37;;;;;;;;;;;;;;;0.80;71.48;99772.28;1083889;54;1066;-77
2024/01/19 02:06:41;;;;;;;;;;;;;;;0.78;71.46;99769.75;1084144;46;1035;-80
2024/01/19 02:07:42;;;;;;;;;;;;;;;0.72;71.61;99776.19;1084497;47;1177;-77
2024/01/19 02:08:45;;;;;;;;;;;;;;;0.64;71.95;99770.53;1084046;47;1078;-77
2024/01/19 02:09:46;;;;;;;;;;;;;;;0.62;71.91;99785.56;1083808;47;1378;-77
2024/01/19 02:10:52;;;;;;;;;;;;;;;0.69;71.72;99784.25;1083765;47;1158;-77
2024/01/19 02:11:52;;;;;;;;;;;;;;;0.70;72.00;99785.13;1083971;47;1179;-77
2024/01/19 02:12:54;;;;;;;;;;;;;;;0.81;71.70;99774.81;1084356;54;1889;-77
2024/01/19 02:13:57;;;;;;;;;;;;;;;0.77;71.66;99784.66;1084223;47;1357;-78
2024/01/19 02:14:58;;;;;;;;;;;;;;;0.76;71.60;99782.13;1083416;54;1066;-77
2024/01/19 02:16:01;;;;;;;;;;;;;;;0.70;71.68;99780.69;1083754;54;1157;-77
2024/01/19 02:17:01;;;;;;;;;;;;;;;0.70;71.40;99780.69;1083806;47;1152;-77
2024/01/19 02:18:05;;;;;;;;;;;;;;;0.74;71.35;99778.72;1083506;54;1173;-78
2024/01/19 02:19:06;;;;;;;;;;;;;;;0.70;71.24;99783.31;1083550;47;1150;-77
2024/01/19 02:20:10;;;;;;;;;;;;;;;0.62;71.62;99782.91;1083286;47;1268;-77
2024/01/19 02:21:11;;;;;;;;;;;;;;;0.65;71.94;99784.53;1083255;47;1138;-78
2024/01/19 02:22:14;;;;;;;;;;;;;;;0.76;71.45;99782.97;1084689;54;1083;-78
2024/01/19 02:23:16;;;;;;;;;;;;;;;0.88;71.25;99784.06;1087110;47;1098;-77
2024/01/19 02:24:22;;;;;;;;;;;;;;;0.94;71.33;99780.22;1087384;54;1412;-77
2024/01/19 02:25:23;;;;;;;;;;;;;;;0.96;71.37;99785.38;1085821;47;1542;-77
2024/01/19 02:26:23;;;;;;;;;;;;;;;0.89;71.27;99787.53;1083745;47;1488;-77
2024/01/19 02:27:27;;;;;;;;;;;;;;;0.78;71.52;99781.09;1083746;47;1014;-77
2024/01/19 02:28:27;;;;;;;;;;;;;;;0.83;71.17;99788.72;1085180;54;1202;-77
2024/01/19 02:29:31;;;;;;;;;;;;;;;0.82;71.37;99788.81;1083995;47;1489;-76
2024/01/19 02:30:32;;;;;;;;;;;;;;;0.86;71.23;99779.78;1084079;47;1090;-77
2024/01/19 02:31:35;;;;;;;;;;;;;;;0.80;71.31;99788.06;1084180;54;1039;-76
2024/01/19 02:32:36;;;;;;;;;;;;;;;0.76;71.30;99782.97;1084460;47;1377;-77
2024/01/19 02:33:39;;;;;;;;;;;;;;;0.86;71.11;99782.44;1084064;47;1876;-76
2024/01/19 02:34:40;;;;;;;;;;;;;;;0.92;70.83;99785.56;1084019;47;1063;-77
2024/01/19 02:35:43;;;;;;;;;;;;;;;0.96;70.79;99780.97;1083602;47;1520;-77
2024/01/19 02:36:44;;;;;;;;;;;;;;;1.04;70.82;99781.34;1083441;54;1315;-77
2024/01/19 02:37:47;;;;;;;;;;;;;;;1.11;70.65;99786.28;1083388;47;1122;-77
2024/01/19 02:38:48;;;;;;;;;;;;;;;1.16;70.63;99779.81;1083326;46;1169;-77
2024/01/19 02:39:54;;;;;;;;;;;;;;;1.20;70.24;99791.84;1083276;54;1087;-77
2024/01/19 02:40:54;;;;;;;;;;;;;;;1.12;70.40;99793.25;1083033;54;1020;-77
2024/01/19 02:41:57;;;;;;;;;;;;;;;1.05;70.61;99788.31;1083318;54;1170;-77
2024/01/19 02:42:58;;;;;;;;;;;;;;;0.92;70.85;99788.19;1083455;47;1081;-77
2024/01/19 02:43:59;;;;;;;;;;;;;;;0.88;70.81;99791.09;1083371;46;1383;-78
2024/01/19 02:45:02;;;;;;;;;;;;;;;0.98;70.63;99794.88;1082705;47;1073;-77
2024/01/19 02:46:03;;;;;;;;;;;;;;;0.91;70.98;99788.28;1083076;54;1133;-77
2024/01/19 02:47:06;;;;;;;;;;;;;;;0.88;70.82;99796.34;1083433;47;1169;-77
2024/01/19 02:48:07;;;;;;;;;;;;;;;0.85;71.13;99797.38;1083320;47;1095;-76
2024/01/19 02:49:08;;;;;;;;;;;;;;;0.86;70.69;99792.97;1083303;47;1830;-76
2024/01/19 02:50:12;;;;;;;;;;;;;;;0.76;70.96;99798.75;1083359;47;1155;-77
2024/01/19 02:51:13;;;;;;;;;;;;;;;0.88;70.97;99801.63;1083545;47;1010;-77
2024/01/19 02:52:16;;;;;;;;;;;;;;;0.95;70.92;99800.31;1083482;47;1476;-77
2024/01/19 02:53:16;;;;;;;;;;;;;;;0.86;70.82;99806.13;1083674;54;1886;-77
2024/01/19 02:54:20;;;;;;;;;;;;;;;0.78;71.10;99810.03;1083470;54;1288;-77
2024/01/19 02:55:23;;;;;;;;;;;;;;;0.76;71.02;99803.19;1083620;47;1093;-77
2024/01/19 02:56:26;;;;;;;;;;;;;;;0.66;71.29;99802.88;1083528;47;1030;-77
2024/01/19 02:57:27;;;;;;;;;;;;;;;0.61;71.13;99811.00;1083492;54;1064;-77
2024/01/19 02:58:30;;;;;;;;;;;;;;;0.84;70.78;99813.28;1083522;54;1040;-77
2024/01/19 02:59:31;;;;;;;;;;;;;;;0.82;70.71;99815.16;1082789;47;1106;-77
2024/01/19 03:00:35;;;;;;;;;;;;;;;0.75;70.93;99812.88;1082931;47;1162;-76
2024/01/19 03:01:35;;;;;;;;;;;;;;;0.77;70.82;99815.41;1082953;47;1522;-77
2024/01/19 03:02:36;;;;;;;;;;;;;;;0.72;71.08;99815.66;1082722;47;1172;-78
2024/01/19 03:03:39;;;;;;;;;;;;;;;0.62;71.37;99822.38;1082833;47;1395;-77
2024/01/19 03:04:40;;;;;;;;;;;;;;;0.37;71.56;99823.78;1082995;47;1174;-77
2024/01/19 03:05:41;;;;;;;;;;;;;;;0.46;71.73;99828.53;1083025;47;985;-77
2024/01/19 03:06:44;;;;;;;;;;;;;;;0.45;71.57;99831.22;1082900;47;1098;-77
2024/01/19 03:07:44;;;;;;;;;;;;;;;0.65;71.17;99822.22;1083275;47;1389;-77
2024/01/19 03:08:48;;;;;;;;;;;;;;;0.55;71.18;99827.13;1083613;54;1045;-78
2024/01/19 03:09:48;;;;;;;;;;;;;;;0.60;71.10;99824.25;1083638;54;1074;-77
2024/01/19 03:10:55;;;;;;;;;;;;;;;0.52;71.25;99831.72;1083672;54;1149;-77
2024/01/19 03:11:55;;;;;;;;;;;;;;;0.45;71.26;99832.09;1083540;54;1359;-77
2024/01/19 03:12:59;;;;;;;;;;;;;;;0.43;71.36;99839.19;1083481;54;1186;-79
2024/01/19 03:14:00;;;;;;;;;;;;;;;0.52;71.50;99843.09;1083156;47;1358;-77
2024/01/19 03:15:03;;;;;;;;;;;;;;;0.64;70.98;99838.94;1083070;47;1132;-77
2024/01/19 03:16:04;;;;;;;;;;;;;;;0.72;70.71;99834.09;1083410;54;1086;-77
2024/01/19 03:17:08;;;;;;;;;;;;;;;0.76;70.51;99829.50;1083081;47;1107;-77
2024/01/19 03:18:08;;;;;;;;;;;;;;;0.67;70.61;99830.84;1083085;47;1051;-77
2024/01/19 03:19:12;;;;;;;;;;;;;;;0.59;70.86;99838.34;1083197;47;1166;-76
2024/01/19 03:20:13;;;;;;;;;;;;;;;0.72;70.76;99831.47;1082896;47;1140;-77
2024/01/19 03:21:18;;;;;;;;;;;;;;;0.74;70.48;99834.00;1083241;54;1110;-77
2024/01/19 03:22:19;;;;;;;;;;;;;;;0.77;70.48;99834.66;1083568;47;1063;-77
2024/01/19 03:23:23;;;;;;;;;;;;;;;0.64;70.67;99831.06;1083554;53;1134;-78
2024/01/19 03:24:23;;;;;;;;;;;;;;;0.60;70.76;99834.78;1083001;47;1553;-77
2024/01/19 03:25:26;;;;;;;;;;;;;;;0.72;70.67;99844.63;1083231;47;1072;-77
2024/01/19 03:26:30;;;;;;;;;;;;;;;0.66;70.78;99829.19;1083213;54;1145;-77
2024/01/19 03:27:34;;;;;;;;;;;;;;;0.77;70.80;99837.28;1083109;47;1153;-77
2024/01/19 03:28:34;;;;;;;;;;;;;;;0.85;70.37;99841.28;1083543;47;1158;-77
2024/01/19 03:29:37;;;;;;;;;;;;;;;0.85;70.44;99839.50;1083831;54;1027;-77
2024/01/19 03:30:38;;;;;;;;;;;;;;;0.87;70.54;99831.50;1083881;47;1082;-78
2024/01/19 03:31:41;;;;;;;;;;;;;;;0.90;70.57;99839.25;1083685;54;1154;-77
2024/01/19 03:32:42;;;;;;;;;;;;;;;0.91;70.48;99833.03;1083535;46;1096;-76
2024/01/19 03:33:45;;;;;;;;;;;;;;;0.89;70.30;99835.78;1083606;47;1885;-77
2024/01/19 03:34:45;;;;;;;;;;;;;;;0.89;70.35;99832.28;1083591;47;1502;-77
2024/01/19 03:35:49;;;;;;;;;;;;;;;0.93;70.40;99836.44;1083449;47;1086;-78
2024/01/19 03:36:50;;;;;;;;;;;;;;;0.97;70.23;99831.84;1083636;54;1468;-77
2024/01/19 03:37:53;;;;;;;;;;;;;;;1.00;69.89;99835.13;1083958;47;1097;-78
2024/01/19 03:38:54;;;;;;;;;;;;;;;1.02;69.91;99835.91;1083181;54;975;-77
2024/01/19 03:39:57;;;;;;;;;;;;;;;0.97;69.84;99837.94;1082592;54;1477;-77
2024/01/19 03:40:58;;;;;;;;;;;;;;;1.02;69.97;99835.91;1082765;47;1151;-76
2024/01/19 03:42:04;;;;;;;;;;;;;;;1.08;69.68;99834.72;1082648;47;1138;-76
2024/01/19 03:43:05;;;;;;;;;;;;;;;0.88;69.96;99830.56;1082063;47;1798;-77
2024/01/19 03:44:08;;;;;;;;;;;;;;;0.79;69.96;99834.59;1083007;47;1409;-77
2024/01/19 03:45:09;;;;;;;;;;;;;;;0.86;70.01;99828.03;1083437;47;1164;-78
2024/01/19 03:46:13;;;;;;;;;;;;;;;0.80;70.07;99825.78;1083233;47;1169;-77
2024/01/19 03:47:13;;;;;;;;;;;;;;;0.78;70.07;99822.38;1083421;47;1156;-77
2024/01/19 03:48:16;;;;;;;;;;;;;;;0.66;70.38;99823.94;1083340;54;994;-77
2024/01/19 03:49:17;;;;;;;;;;;;;;;0.68;70.17;99824.66;1083441;47;1138;-77
2024/01/19 03:50:22;;;;;;;;;;;;;;;0.66;70.03;99823.94;1082740;54;1180;-77
2024/01/19 03:51:22;;;;;;;;;;;;;;;0.65;69.94;99827.50;1082785;47;1067;-77
2024/01/19 03:52:26;;;;;;;;;;;;;;;0.61;70.20;99833.84;1082631;54;1142;-77
2024/01/19 03:53:26;;;;;;;;;;;;;;;0.69;70.20;99833.41;1083125;47;1906;-77
2024/01/19 03:54:27;;;;;;;;;;;;;;;0.71;70.07;99836.81;1083312;54;1425;-77
2024/01/19 03:55:30;;;;;;;;;;;;;;;0.76;70.18;99830.34;1083476;47;999;-76
2024/01/19 03:56:31;;;;;;;;;;;;;;;0.78;70.10;99827.63;1083122;46;1070;-77
2024/01/19 03:57:37;;;;;;;;;;;;;;;0.86;69.82;99825.41;1083473;54;1121;-76
2024/01/19 03:58:37;;;;;;;;;;;;;;;0.89;70.05;99830.50;1083375;46;1429;-77
2024/01/19 03:59:41;;;;;;;;;;;;;;;0.93;69.59;99828.53;1082785;47;1091;-77
2024/01/19 04:00:42;;;;;;;;;;;;;;;0.91;69.72;99830.41;1082627;46;1162;-77
2024/01/19 04:01:45;;;;;;;;;;;;;;;0.99;69.66;99836.06;1082904;47;1145;-77
2024/01/19 04:02:46;;;;;;;;;;;;;;;1.01;69.50;99834.22;1082494;47;1098;-77
2024/01/19 04:03:49;;;;;;;;;;;;;;;0.99;69.52;99835.25;1082717;54;1363;-77
2024/01/19 04:04:50;;;;;;;;;;;;;;;1.03;69.76;99836.75;1082729;54;1150;-77
2024/01/19 04:05:51;;;;;;;;;;;;;;;1.02;69.35;99843.81;1082652;47;1263;-77
2024/01/19 04:06:55;;;;;;;;;;;;;;;1.04;69.33;99847.16;1082728;47;1185;-77
2024/01/19 04:07:56;;;;;;;;;;;;;;;1.02;69.59;99843.81;1082752;54;1169;-77
2024/01/19 04:08:59;;;;;;;;;;;;;;;0.83;70.11;99840.53;1082426;54;1183;-77
2024/01/19 04:10:00;;;;;;;;;;;;;;;0.85;69.65;99843.94;1082859;54;1138;-79
2024/01/19 04:11:04;;;;;;;;;;;;;;;0.86;69.59;99845.59;1082657;47;1181;-77
2024/01/19 04:12:14;;;;;;;;;;;;;;;0.85;69.72;99849.19;1082706;47;1063;-77
2024/01/19 04:13:20;;;;;;;;;;;;;;;0.90;69.61;99841.88;1082646;54;1178;-78
2024/01/19 04:14:21;;;;;;;;;;;;;;;0.83;69.81;99856.31;1082578;54;1884;-77
2024/01/19 04:15:24;;;;;;;;;;;;;;;0.72;70.28;99844.63;1082660;54;1074;-77
2024/01/19 04:16:25;;;;;;;;;;;;;;;0.72;70.13;99854.28;1082431;47;1503;-76
2024/01/19 04:17:28;;;;;;;;;;;;;;;0.69;70.09;99855.31;1082729;47;1169;-78
2024/01/19 04:18:29;;;;;;;;;;;;;;;0.74;70.01;99847.16;1083000;47;1100;-77
2024/01/19 04:19:33;;;;;;;;;;;;;;;0.76;70.18;99845.28;1083411;54;1274;-77
2024/01/19 04:20:33;;;;;;;;;;;;;;;0.85;69.93;99852.66;1083213;54;1106;-77
2024/01/19 04:21:34;;;;;;;;;;;;;;;0.77;70.04;99852.25;1083278;47;1092;-77
2024/01/19 04:22:37;;;;;;;;;;;;;;;0.76;70.23;99859.28;1083361;47;1094;-77
2024/01/19 04:23:38;;;;;;;;;;;;;;;0.88;69.94;99854.25;1083240;46;1879;-76
2024/01/19 04:24:38;;;;;;;;;;;;;;;0.88;70.08;99860.41;1083100;47;1505;-78
2024/01/19 04:25:41;;;;;;;;;;;;;;;0.87;70.07;99856.06;1083296;47;1275;-77
2024/01/19 04:26:42;;;;;;;;;;;;;;;0.83;69.98;99866.84;1083361;47;1106;-77
2024/01/19 04:27:45;;;;;;;;;;;;;;;0.81;70.12;99859.03;1083316;54;1083;-77
2024/01/19 04:28:48;;;;;;;;;;;;;;;0.72;70.15;99860.41;1083272;47;1138;-76
2024/01/19 04:29:52;;;;;;;;;;;;;;;0.74;70.29;99862.94;1083020;54;1086;-78
2024/01/19 04:30:52;;;;;;;;;;;;;;;0.72;70.11;99867.44;1083244;47;1044;-76
2024/01/19 04:31:56;;;;;;;;;;;;;;;0.75;69.85;99854.13;1083268;47;1030;-77
2024/01/19 04:32:57;;;;;;;;;;;;;;;0.72;70.02;99857.78;1083130;54;1489;-76
2024/01/19 04:33:57;;;;;;;;;;;;;;;0.63;70.20;99866.19;1083068;54;1848;-77
2024/01/19 04:35:03;;;;;;;;;;;;;;;0.56;70.26;99865.66;1083184;54;1046;-77
2024/01/19 04:36:03;;;;;;;;;;;;;;;0.56;70.30;99862.22;1083087;54;1426;-77
2024/01/19 04:37:07;;;;;;;;;;;;;;;0.61;70.37;99863.63;1083197;50;1193;-76
2024/01/19 04:38:07;;;;;;;;;;;;;;;0.67;70.00;99862.44;1083220;47;1176;-76
2024/01/19 04:39:09;;;;;;;;;;;;;;;0.70;69.96;99856.16;1083187;47;1091;-78
2024/01/19 04:40:12;;;;;;;;;;;;;;;0.64;70.27;99859.13;1083270;54;1070;-76
2024/01/19 04:41:13;;;;;;;;;;;;;;;0.61;70.47;99868.03;1083087;54;1464;-76
2024/01/19 04:42:13;;;;;;;;;;;;;;;0.70;70.27;99854.38;1083128;54;1173;-77
2024/01/19 04:43:17;;;;;;;;;;;;;;;0.65;70.45;99868.72;1082998;47;1153;-76
2024/01/19 04:44:20;;;;;;;;;;;;;;;0.61;70.37;99862.78;1082999;47;1510;-77
2024/01/19 04:45:23;;;;;;;;;;;;;;;0.72;70.45;99863.03;1083060;47;1166;-77
2024/01/19 04:46:24;;;;;;;;;;;;;;;0.73;70.19;99863.88;1083177;47;1488;-76
2024/01/19 04:47:27;;;;;;;;;;;;;;;0.73;70.35;99864.75;1083084;47;1098;-77
2024/01/19 04:48:28;;;;;;;;;;;;;;;0.76;70.34;99867.19;1083182;54;1150;-76
2024/01/19 04:49:31;;;;;;;;;;;;;;;0.76;70.21;99866.34;1083097;54;1932;-76
2024/01/19 04:50:32;;;;;;;;;;;;;;;0.79;70.22;99868.81;1083016;47;1500;-77
2024/01/19 04:51:35;;;;;;;;;;;;;;;0.83;69.96;99872.13;1083129;47;1466;-77
2024/01/19 04:52:36;;;;;;;;;;;;;;;0.88;70.14;99875.31;1083255;47;966;-76
2024/01/19 04:53:39;;;;;;;;;;;;;;;0.87;69.95;99876.25;1083066;47;1373;-76
2024/01/19 04:54:39;;;;;;;;;;;;;;;0.84;69.97;99873.81;1083343;47;1071;-77
2024/01/19 04:55:43;;;;;;;;;;;;;;;0.87;69.90;99878.88;1083261;47;1128;-77
2024/01/19 04:56:43;;;;;;;;;;;;;;;0.73;70.10;99882.28;1083158;54;1111;-77
2024/01/19 04:57:46;;;;;;;;;;;;;;;0.80;69.95;99880.16;1083446;54;1436;-77
2024/01/19 04:58:47;;;;;;;;;;;;;;;0.80;69.74;99885.44;1083938;47;1191;-76
2024/01/19 04:59:51;;;;;;;;;;;;;;;0.82;69.95;99891.47;1083746;54;1113;-77
2024/01/19 05:00:54;;;;;;;;;;;;;;;0.79;70.25;99892.50;1084132;54;1164;-76
2024/01/19 05:01:55;;;;;;;;;;;;;;;0.88;69.87;99888.47;1084388;47;1145;-78
2024/01/19 05:03:01;;;;;;;;;;;;;;;0.90;69.88;99879.56;1083974;47;1142;-78
2024/01/19 05:04:01;;;;;;;;;;;;;;;0.87;69.67;99894.69;1084111;54;1367;-78
2024/01/19 05:05:05;;;;;;;;;;;;;;;0.84;69.82;99886.97;1084408;47;1424;-78
2024/01/19 05:06:06;;;;;;;;;;;;;;;0.76;69.81;99890.03;1083278;54;1099;-78
2024/01/19 05:07:09;;;;;;;;;;;;;;;0.50;70.68;99892.31;1083316;47;1073;-78
2024/01/19 05:08:10;;;;;;;;;;;;;;;0.30;70.97;99896.88;1083151;47;1160;-77
2024/01/19 05:09:13;;;;;;;;;;;;;;;0.29;70.99;99897.81;1083480;54;1135;-78
2024/01/19 05:10:13;;;;;;;;;;;;;;;0.29;70.90;99903.06;1082752;54;1149;-77
2024/01/19 05:11:14;;;;;;;;;;;;;;;0.34;70.95;99907.22;1083011;54;1088;-77
2024/01/19 05:12:17;;;;;;;;;;;;;;;0.19;71.18;99908.91;1083178;47;1320;-77
2024/01/19 05:13:18;;;;;;;;;;;;;;;0.08;71.74;99907.72;1083537;54;1070;-78
2024/01/19 05:14:21;;;;;;;;;;;;;;;0.15;71.55;99908.22;1083438;54;1891;-77
2024/01/19 05:15:25;;;;;;;;;;;;;;;0.10;71.84;99911.09;1083288;54;1124;-78
2024/01/19 05:16:25;;;;;;;;;;;;;;;0.00;72.02;99912.53;1083417;54;1110;-77
2024/01/19 05:17:28;;;;;;;;;;;;;;;0.03;71.80;99914.97;1083484;47;1098;-78
2024/01/19 05:18:29;;;;;;;;;;;;;;;-0.05;71.79;99912.75;1083349;47;1342;-78
2024/01/19 05:19:32;;;;;;;;;;;;;;;-0.14;72.32;99920.25;1083066;47;1063;-77
2024/01/19 05:20:33;;;;;;;;;;;;;;;-0.19;72.81;99917.88;1083310;47;1057;-78
2024/01/19 05:21:36;;;;;;;;;;;;;;;-0.17;72.54;99922.13;1083178;47;1074;-77
2024/01/19 05:22:37;;;;;;;;;;;;;;;-0.16;72.41;99921.19;1083243;47;1054;-78
2024/01/19 05:23:41;;;;;;;;;;;;;;;-0.10;72.53;99924.44;1082708;54;1327;-79
2024/01/19 05:24:42;;;;;;;;;;;;;;;-0.10;72.63;99927.06;1082867;54;1078;-78
2024/01/19 05:25:45;;;;;;;;;;;;;;;-0.09;72.59;99926.97;1083329;47;1157;-77
2024/01/19 05:26:45;;;;;;;;;;;;;;;-0.09;72.58;99936.63;1083246;47;1527;-78
2024/01/19 05:27:51;;;;;;;;;;;;;;;-0.07;72.59;99934.78;1083332;47;1042;-78
2024/01/19 05:28:51;;;;;;;;;;;;;;;-0.04;72.67;99938.09;1083182;47;1156;-78
2024/01/19 05:29:54;;;;;;;;;;;;;;;-0.03;72.72;99942.44;1082519;47;1137;-77
2024/01/19 05:30:58;;;;;;;;;;;;;;;-0.07;72.53;99938.28;1082964;54;1387;-78
2024/01/19 05:32:01;;;;;;;;;;;;;;;-0.12;73.02;99942.06;1082680;47;1178;-78
2024/01/19 05:33:02;;;;;;;;;;;;;;;-0.17;72.63;99937.88;1082942;47;1090;-78